createdAt,value
2022-12-24T00:02:39.680Z,9.75
2022-12-24T00:05:45.609Z,10.48
2022-12-24T00:08:51.558Z,10.30
2022-12-24T00:11:56.847Z,10.65
2022-12-24T00:15:04.819Z,11.60
2022-12-24T00:18:10.475Z,11.02
2022-12-24T00:21:16.211Z,12.35
2022-12-24T00:24:21.278Z,15.25
2022-12-24T00:27:26.685Z,12.32
2022-12-24T00:30:34.903Z,11.27
2022-12-24T00:33:40.730Z,11.02
2022-12-24T00:36:46.251Z,11.52
2022-12-24T00:39:51.426Z,11.02
2022-12-24T00:42:57.118Z,10.88
2022-12-24T00:46:05.055Z,13.18
2022-12-24T00:49:11.421Z,12.85
2022-12-24T00:52:16.580Z,13.60
2022-12-24T00:55:22.064Z,14.65
2022-12-24T00:58:27.462Z,12.80
2022-12-24T01:01:36.170Z,13.30
2022-12-24T01:04:53.876Z,14.65
2022-12-24T01:07:59.947Z,18.15
2022-12-24T01:11:05.402Z,19.30
2022-12-24T01:14:10.731Z,20.73
2022-12-24T01:17:18.837Z,21.77
2022-12-24T01:20:24.614Z,21.27
2022-12-24T01:23:30.304Z,21.35
2022-12-24T01:26:35.877Z,23.10
2022-12-24T01:29:40.931Z,26.17
2022-12-24T01:32:48.963Z,23.85
2022-12-24T01:35:54.345Z,21.98
2022-12-24T01:38:59.848Z,28.40
2022-12-24T01:42:17.557Z,26.13
2022-12-24T01:45:42.944Z,25.52
2022-12-24T01:48:52.853Z,26.08
2022-12-24T01:51:59.341Z,24.27
2022-12-24T01:55:06.368Z,22.48
2022-12-24T01:58:12.940Z,28.70
2022-12-24T02:01:18.583Z,27.85
2022-12-24T02:04:31.950Z,25.65
2022-12-24T02:07:37.334Z,29.63
2022-12-24T02:10:42.830Z,27.45
2022-12-24T02:13:49.541Z,29.33
2022-12-24T02:16:57.726Z,26.45
2022-12-24T02:20:21.350Z,28.92
2022-12-24T02:23:38.540Z,25.92
2022-12-24T02:26:59.403Z,24.00
2022-12-24T02:30:18.947Z,27.40
2022-12-24T02:33:29.191Z,28.50
2022-12-24T02:36:35.972Z,26.38
2022-12-24T02:39:43.773Z,26.45
2022-12-24T02:42:51.612Z,25.20
2022-12-24T02:46:01.574Z,25.93
2022-12-24T02:49:07.258Z,25.52
2022-12-24T02:52:31.012Z,28.02
2022-12-24T02:55:39.674Z,25.60
2022-12-24T02:58:50.040Z,28.45
2022-12-24T03:02:00.653Z,23.67
2022-12-24T03:05:11.116Z,24.98
2022-12-24T03:08:19.185Z,28.45
2022-12-24T03:11:24.296Z,26.23
2022-12-24T03:14:30.677Z,24.70
2022-12-24T03:17:40.394Z,27.58
2022-12-24T03:20:48.117Z,25.92
2022-12-24T03:23:53.600Z,26.08
2022-12-24T03:26:59.649Z,26.95
2022-12-24T03:30:05.454Z,25.25
2022-12-24T03:33:13.630Z,29.55
2022-12-24T03:36:18.832Z,24.58
2022-12-24T03:39:24.380Z,27.90
2022-12-24T03:42:29.792Z,32.35
2022-12-24T03:45:35.139Z,26.80
2022-12-24T03:48:43.434Z,29.98
2022-12-24T03:51:49.194Z,30.88
2022-12-24T03:54:54.473Z,33.28
2022-12-24T03:57:59.770Z,28.85
2022-12-24T04:01:05.158Z,27.70
2022-12-24T04:04:13.045Z,28.42
2022-12-24T04:07:18.342Z,32.53
2022-12-24T04:10:23.913Z,32.00
2022-12-24T04:13:29.325Z,27.00
2022-12-24T04:16:34.910Z,28.55
2022-12-24T04:19:42.915Z,30.35
2022-12-24T04:22:48.455Z,27.73
2022-12-24T04:25:54.098Z,29.88
2022-12-24T04:28:59.860Z,30.73
2022-12-24T04:32:05.325Z,31.55
2022-12-24T04:35:13.513Z,26.77
2022-12-24T04:38:18.813Z,33.88
2022-12-24T04:41:25.298Z,29.67
2022-12-24T04:44:30.739Z,26.13
2022-12-24T04:47:36.442Z,25.60
2022-12-24T04:50:44.674Z,26.80
2022-12-24T04:53:49.694Z,28.20
2022-12-24T04:56:54.966Z,28.85
2022-12-24T05:00:00.234Z,27.75
2022-12-24T05:03:05.658Z,26.35
2022-12-24T05:06:14.931Z,28.92
2022-12-24T05:09:20.193Z,29.63
2022-12-24T05:12:25.734Z,30.52
2022-12-24T05:15:31.119Z,27.65
2022-12-24T05:18:36.469Z,29.85
2022-12-24T05:21:44.555Z,33.22
2022-12-24T05:25:02.131Z,29.33
2022-12-24T05:28:08.921Z,34.97
2022-12-24T05:31:14.416Z,26.63
2022-12-24T05:34:19.868Z,33.78
2022-12-24T05:37:27.784Z,34.25
2022-12-24T05:40:32.917Z,33.72
2022-12-24T05:43:38.315Z,33.45
2022-12-24T05:46:43.812Z,37.10
2022-12-24T05:49:49.258Z,35.55
2022-12-24T05:52:57.285Z,35.00
2022-12-24T05:56:06.254Z,35.88
2022-12-24T05:59:11.791Z,30.95
2022-12-24T06:02:17.185Z,34.22
2022-12-24T06:05:22.499Z,30.10
2022-12-24T06:08:30.607Z,32.35
2022-12-24T06:11:37.132Z,34.00
2022-12-24T06:14:42.197Z,29.42
2022-12-24T06:17:47.605Z,32.83
2022-12-24T06:20:53.826Z,30.88
2022-12-24T06:24:02.021Z,26.63
2022-12-24T06:27:07.293Z,31.90
2022-12-24T06:30:13.696Z,26.42
2022-12-24T06:33:19.443Z,33.92
2022-12-24T06:36:25.719Z,30.23
2022-12-24T06:39:33.550Z,29.33
2022-12-24T06:42:39.021Z,26.60
2022-12-24T06:45:48.061Z,28.00
2022-12-24T06:48:55.553Z,26.95
2022-12-24T06:52:01.079Z,25.15
2022-12-24T06:55:09.769Z,26.60
2022-12-24T06:58:15.300Z,24.92
2022-12-24T07:01:22.481Z,25.60
2022-12-24T07:04:27.675Z,26.90
2022-12-24T07:07:33.302Z,28.08
2022-12-24T07:10:40.883Z,26.27
2022-12-24T07:13:46.395Z,30.50
2022-12-24T07:16:58.643Z,23.98
2022-12-24T07:20:04.883Z,28.55
2022-12-24T07:23:10.828Z,23.33
2022-12-24T07:26:18.941Z,26.63
2022-12-24T07:29:24.219Z,31.08
2022-12-24T07:32:29.265Z,31.98
2022-12-24T07:35:34.895Z,22.95
2022-12-24T07:38:41.623Z,27.98
2022-12-24T07:41:50.930Z,26.70
2022-12-24T07:44:57.557Z,28.35
2022-12-24T07:48:02.985Z,28.20
2022-12-24T07:51:08.703Z,22.95
2022-12-24T07:54:14.154Z,23.52
2022-12-24T07:57:22.293Z,23.88
2022-12-24T08:00:27.593Z,23.10
2022-12-24T08:03:33.235Z,25.63
2022-12-24T08:06:38.429Z,21.30
2022-12-24T08:09:44.846Z,25.77
2022-12-24T08:12:52.740Z,21.05
2022-12-24T08:15:58.429Z,19.13
2022-12-24T08:19:04.207Z,21.60
2022-12-24T08:22:09.603Z,17.90
2022-12-24T08:25:14.800Z,21.00
2022-12-24T08:28:23.571Z,19.27
2022-12-24T08:31:28.680Z,14.93
2022-12-24T08:34:34.137Z,17.85
2022-12-24T08:37:39.526Z,18.75
2022-12-24T08:40:44.847Z,17.92
2022-12-24T08:43:52.736Z,14.18
2022-12-24T08:46:58.176Z,17.13
2022-12-24T08:50:03.812Z,16.50
2022-12-24T08:53:09.443Z,17.85
2022-12-24T08:56:14.971Z,16.60
2022-12-24T08:59:23.059Z,19.88
2022-12-24T09:02:31.762Z,14.43
2022-12-24T09:05:37.148Z,13.23
2022-12-24T09:08:42.266Z,15.90
2022-12-24T09:11:48.491Z,15.75
2022-12-24T09:15:02.969Z,15.35
2022-12-24T09:18:09.586Z,15.70
2022-12-24T09:21:17.802Z,14.05
2022-12-24T09:24:23.393Z,14.05
2022-12-24T09:27:28.846Z,14.38
2022-12-24T09:30:37.088Z,14.10
2022-12-24T09:33:44.149Z,11.68
2022-12-24T09:36:49.816Z,15.40
2022-12-24T09:39:55.244Z,14.75
2022-12-24T09:43:00.890Z,13.90
2022-12-24T09:46:16.750Z,13.43
2022-12-24T09:49:24.553Z,12.25
2022-12-24T09:52:33.101Z,13.98
2022-12-24T09:58:45.603Z,15.80
2022-12-24T10:01:54.366Z,13.68
2022-12-24T10:04:59.958Z,14.52
2022-12-24T10:08:08.054Z,13.40
2022-12-24T10:11:18.915Z,15.75
2022-12-24T10:14:31.562Z,12.70
2022-12-24T10:17:47.455Z,15.35
2022-12-24T10:20:56.507Z,13.93
2022-12-24T10:24:04.247Z,11.50
2022-12-24T10:27:15.078Z,13.80
2022-12-24T10:30:21.347Z,9.65
2022-12-24T10:33:32.344Z,12.70
2022-12-24T10:36:38.173Z,11.07
2022-12-24T10:39:43.195Z,12.45
2022-12-24T10:42:51.664Z,10.90
2022-12-24T10:45:59.686Z,11.18
2022-12-24T10:49:09.048Z,12.80
2022-12-24T10:52:15.971Z,12.20
2022-12-24T10:55:28.539Z,11.15
2022-12-24T10:58:34.277Z,12.35
2022-12-24T11:01:47.144Z,12.57
2022-12-24T11:04:54.940Z,11.73
2022-12-24T11:08:04.782Z,10.07
2022-12-24T11:14:17.943Z,8.00
2022-12-24T11:17:24.406Z,10.95
2022-12-24T11:20:33.371Z,10.77
2022-12-24T11:23:39.010Z,9.00
2022-12-24T11:26:46.192Z,9.73
2022-12-24T11:29:51.457Z,15.85
2022-12-24T11:33:11.723Z,9.20
2022-12-24T11:36:20.600Z,9.35
2022-12-24T11:39:27.153Z,12.60
2022-12-24T11:42:34.938Z,10.15
2022-12-24T11:45:40.312Z,9.25
2022-12-24T11:48:45.865Z,7.35
2022-12-24T11:52:07.520Z,9.30
2022-12-24T11:55:21.133Z,9.95
2022-12-24T11:58:30.541Z,10.45
2022-12-24T12:01:38.264Z,8.68
2022-12-24T12:04:45.206Z,8.55
2022-12-24T12:07:54.387Z,8.15
2022-12-24T12:11:01.329Z,7.00
2022-12-24T12:14:07.525Z,7.97
2022-12-24T12:17:17.338Z,9.25
2022-12-24T12:20:25.886Z,9.35
2022-12-24T12:23:34.509Z,7.35
2022-12-24T12:26:39.930Z,6.75
2022-12-24T12:29:48.019Z,10.32
2022-12-24T12:32:55.928Z,7.90
2022-12-24T12:36:03.649Z,9.23
2022-12-24T12:39:12.181Z,9.13
2022-12-24T12:42:21.830Z,8.45
2022-12-24T12:45:34.403Z,8.40
2022-12-24T12:48:56.952Z,6.72
2022-12-24T12:52:08.466Z,8.95
2022-12-24T12:55:25.357Z,6.65
2022-12-24T12:58:34.350Z,7.53
2022-12-24T13:01:43.442Z,7.40
2022-12-24T13:05:09.197Z,6.57
2022-12-24T13:08:21.743Z,9.43
2022-12-24T13:11:35.453Z,9.43
2022-12-24T13:14:55.792Z,9.90
2022-12-24T13:18:10.791Z,8.40
2022-12-24T13:21:19.368Z,8.63
2022-12-24T13:24:26.244Z,8.65
2022-12-24T13:27:35.611Z,7.82
2022-12-24T13:30:41.782Z,7.47
2022-12-24T13:33:51.277Z,7.50
2022-12-24T13:37:23.933Z,8.75
2022-12-24T13:40:29.974Z,6.38
2022-12-24T13:44:04.395Z,10.40
2022-12-24T13:47:32.439Z,10.15
2022-12-24T13:53:45.567Z,11.00
2022-12-24T13:56:50.861Z,9.70
2022-12-24T14:00:03.345Z,9.88
2022-12-24T14:03:24.212Z,17.65
2022-12-24T14:06:30.830Z,10.35
2022-12-24T14:09:36.484Z,12.80
2022-12-24T14:12:52.802Z,8.45
2022-12-24T14:16:07.225Z,9.93
2022-12-24T14:19:17.173Z,12.73
2022-12-24T14:22:32.272Z,10.68
2022-12-24T14:25:37.826Z,11.27
2022-12-24T14:28:44.754Z,8.40
2022-12-24T14:31:59.646Z,15.45
2022-12-24T14:35:18.854Z,12.90
2022-12-24T14:38:24.369Z,10.88
2022-12-24T14:41:33.788Z,12.82
2022-12-24T14:44:44.638Z,11.00
2022-12-24T14:47:53.721Z,14.02
2022-12-24T14:51:05.898Z,16.65
2022-12-24T14:54:21.250Z,11.05
2022-12-24T14:57:27.696Z,12.30
2022-12-24T15:00:39.150Z,10.82
2022-12-24T15:03:44.920Z,13.10
2022-12-24T15:06:55.040Z,13.40
2022-12-24T15:10:00.480Z,13.93
2022-12-24T15:13:07.241Z,13.90
2022-12-24T15:16:13.653Z,12.73
2022-12-24T15:19:23.938Z,11.57
2022-12-24T15:22:33.372Z,11.40
2022-12-24T15:25:38.792Z,12.57
2022-12-24T15:28:44.389Z,11.55
2022-12-24T15:31:55.196Z,10.50
2022-12-24T15:35:00.544Z,12.23
2022-12-24T15:38:09.291Z,10.68
2022-12-24T15:41:19.970Z,11.18
2022-12-24T15:44:25.678Z,12.45
2022-12-24T15:47:38.522Z,11.32
2022-12-24T15:50:47.064Z,12.07
2022-12-24T15:53:55.958Z,10.57
2022-12-24T15:57:01.323Z,12.75
2022-12-24T16:00:07.571Z,10.68
2022-12-24T16:03:14.715Z,10.27
2022-12-24T16:06:20.692Z,12.90
2022-12-24T16:09:43.896Z,11.07
2022-12-24T16:12:49.568Z,11.57
2022-12-24T16:15:56.931Z,9.38
2022-12-24T16:19:03.185Z,10.52
2022-12-24T16:22:31.799Z,11.73
2022-12-24T16:25:39.679Z,12.70
2022-12-24T16:28:45.229Z,9.80
2022-12-24T16:31:53.220Z,11.75
2022-12-24T16:34:58.653Z,11.52
2022-12-24T16:38:04.163Z,11.57
2022-12-24T16:41:11.987Z,12.15
2022-12-24T16:44:14.971Z,10.77
2022-12-24T16:47:22.499Z,12.57
2022-12-24T16:50:27.843Z,10.37
2022-12-24T16:53:33.401Z,10.32
2022-12-24T16:56:41.329Z,12.32
2022-12-24T16:59:47.003Z,9.13
2022-12-24T17:02:53.216Z,9.80
2022-12-24T17:05:58.663Z,10.80
2022-12-24T17:09:03.870Z,10.73
2022-12-24T17:12:12.202Z,9.48
2022-12-24T17:15:17.727Z,9.52
2022-12-24T17:18:23.188Z,8.50
2022-12-24T17:21:28.576Z,8.38
2022-12-24T17:24:34.285Z,8.75
2022-12-24T17:27:42.479Z,6.55
2022-12-24T17:30:48.157Z,7.50
2022-12-24T17:33:53.747Z,9.05
2022-12-24T17:36:58.902Z,7.07
2022-12-24T17:40:04.371Z,6.70
2022-12-24T17:43:12.843Z,6.00
2022-12-24T17:46:19.370Z,5.18
2022-12-24T17:49:25.139Z,6.32
2022-12-24T17:52:30.627Z,3.50
2022-12-24T17:55:36.177Z,5.75
2022-12-24T17:58:44.374Z,4.50
2022-12-24T18:01:49.918Z,6.82
2022-12-24T18:04:55.268Z,5.85
2022-12-24T18:08:00.627Z,6.78
2022-12-24T18:11:13.628Z,4.95
2022-12-24T18:14:21.733Z,5.32
2022-12-24T18:17:27.225Z,6.35
2022-12-24T18:20:33.296Z,7.07
2022-12-24T18:23:39.173Z,5.97
2022-12-24T18:26:46.332Z,4.82
2022-12-24T18:29:54.302Z,5.35
2022-12-24T18:32:59.659Z,3.92
2022-12-24T18:36:04.908Z,3.42
2022-12-24T18:39:10.667Z,4.45
2022-12-24T18:42:16.139Z,4.70
2022-12-24T18:45:24.031Z,7.00
2022-12-24T18:48:29.512Z,4.85
2022-12-24T18:51:36.710Z,5.22
2022-12-24T18:54:43.206Z,6.28
2022-12-24T18:57:48.601Z,8.55
2022-12-24T19:00:56.561Z,6.28
2022-12-24T19:04:02.622Z,4.30
2022-12-24T19:07:08.401Z,3.85
2022-12-24T19:10:14.434Z,4.05
2022-12-24T19:13:19.994Z,4.68
2022-12-24T19:16:28.251Z,4.93
2022-12-24T19:22:38.653Z,7.88
2022-12-24T19:25:43.918Z,5.57
2022-12-24T19:28:49.519Z,6.25
2022-12-24T19:31:57.785Z,6.30
2022-12-24T19:35:02.845Z,6.45
2022-12-24T19:38:08.307Z,5.30
2022-12-24T19:41:15.258Z,30.35
2022-12-24T19:44:20.842Z,5.28
2022-12-24T19:47:28.726Z,4.28
2022-12-24T19:50:35.000Z,3.95
2022-12-24T19:53:40.675Z,8.40
2022-12-24T19:56:46.158Z,7.68
2022-12-24T19:59:51.496Z,5.30
2022-12-24T20:02:59.595Z,5.35
2022-12-24T20:06:05.060Z,5.88
2022-12-24T20:09:11.701Z,12.27
2022-12-24T20:12:16.797Z,7.35
2022-12-24T20:15:22.373Z,7.32
2022-12-24T20:18:30.408Z,6.32
2022-12-24T20:21:36.021Z,7.20
2022-12-24T20:24:41.367Z,7.43
2022-12-24T20:27:47.092Z,6.97
2022-12-24T20:30:52.531Z,5.47
2022-12-24T20:34:02.475Z,9.77
2022-12-24T20:37:07.799Z,8.45
2022-12-24T20:40:13.575Z,7.45
2022-12-24T20:43:24.329Z,7.85
2022-12-24T20:46:31.391Z,12.25
2022-12-24T20:49:39.599Z,7.40
2022-12-24T20:52:44.986Z,9.55
2022-12-24T20:55:52.822Z,6.38
2022-12-24T20:58:58.866Z,6.95
2022-12-24T21:02:04.517Z,7.47
2022-12-24T21:05:13.474Z,8.25
2022-12-24T21:08:18.935Z,9.13
2022-12-24T21:11:37.221Z,9.50
2022-12-24T21:14:42.550Z,9.18
2022-12-24T21:17:48.252Z,7.22
2022-12-24T21:20:57.515Z,5.68
2022-12-24T21:24:03.011Z,7.18
2022-12-24T21:27:08.098Z,6.32
2022-12-24T21:30:13.911Z,8.60
2022-12-24T21:33:19.298Z,6.50
2022-12-24T21:36:27.408Z,11.07
2022-12-24T21:39:32.799Z,7.13
2022-12-24T21:42:38.515Z,7.18
2022-12-24T21:45:44.047Z,8.65
2022-12-24T21:49:01.671Z,6.80
2022-12-24T21:52:09.701Z,7.88
2022-12-24T21:55:15.061Z,6.40
2022-12-24T21:58:20.595Z,5.82
2022-12-24T22:01:25.888Z,7.50
2022-12-24T22:04:31.388Z,8.02
2022-12-24T22:07:51.670Z,9.63
2022-12-24T22:11:09.083Z,7.40
2022-12-24T22:14:14.563Z,6.63
2022-12-24T22:17:25.233Z,6.75
2022-12-24T22:20:31.661Z,6.47
2022-12-24T22:23:42.569Z,4.43
2022-12-24T22:26:48.031Z,4.30
2022-12-24T22:29:53.898Z,6.60
2022-12-24T22:33:00.189Z,6.10
2022-12-24T22:36:07.285Z,5.38
2022-12-24T22:39:15.075Z,3.28
2022-12-24T22:42:20.493Z,4.00
2022-12-24T22:45:25.947Z,3.88
2022-12-24T22:48:31.236Z,4.00
2022-12-24T22:51:36.532Z,3.95
2022-12-24T22:54:44.765Z,5.07
2022-12-24T22:57:50.249Z,3.78
2022-12-24T23:00:56.066Z,2.90
2022-12-24T23:04:01.303Z,2.97
2022-12-24T23:07:07.626Z,2.90
2022-12-24T23:10:15.544Z,2.60
2022-12-24T23:13:33.580Z,2.55
2022-12-24T23:16:39.292Z,4.03
2022-12-24T23:19:44.478Z,3.28
2022-12-24T23:22:49.816Z,2.83
2022-12-24T23:26:04.457Z,2.45
2022-12-24T23:29:09.937Z,3.20
2022-12-24T23:32:15.256Z,3.58
2022-12-24T23:35:21.186Z,2.42
2022-12-24T23:38:26.889Z,3.33
2022-12-24T23:41:35.068Z,3.20
2022-12-24T23:44:40.346Z,3.60
2022-12-24T23:47:45.399Z,4.40
2022-12-24T23:50:51.168Z,4.68
2022-12-24T23:53:57.310Z,3.75
2022-12-24T23:57:05.068Z,3.97
